sensor_id;sensor_type;location;lat;lon;timestamp;temperature;humidity
28438;DHT22;15667;52.376;9.708;2023-02-26T00:00:57;-0.10;99.90
28438;DHT22;15667;52.376;9.708;2023-02-26T00:03:22;1.10;99.90
28438;DHT22;15667;52.376;9.708;2023-02-26T00:05:48;-0.10;99.90
28438;DHT22;15667;52.376;9.708;2023-02-26T00:08:14;1.10;99.90
28438;DHT22;15667;52.376;9.708;2023-02-26T00:10:40;0.00;99.90
28438;DHT22;15667;52.376;9.708;2023-02-26T00:13:05;0.00;99.90
28438;DHT22;15667;52.376;9.708;2023-02-26T00:15:31;-0.10;99.90
28438;DHT22;15667;52.376;9.708;2023-02-26T00:18:03;-0.20;99.90
28438;DHT22;15667;52.376;9.708;2023-02-26T00:20:30;-0.10;99.90
28438;DHT22;15667;52.376;9.708;2023-02-26T00:22:56;-0.10;99.90
28438;DHT22;15667;52.376;9.708;2023-02-26T00:25:22;-0.10;99.90
28438;DHT22;15667;52.376;9.708;2023-02-26T00:27:47;-0.10;99.90
28438;DHT22;15667;52.376;9.708;2023-02-26T00:30:14;-0.10;99.90
28438;DHT22;15667;52.376;9.708;2023-02-26T00:32:40;-0.30;99.90
28438;DHT22;15667;52.376;9.708;2023-02-26T00:35:08;-0.30;99.90
28438;DHT22;15667;52.376;9.708;2023-02-26T00:38:06;-0.30;99.90
28438;DHT22;15667;52.376;9.708;2023-02-26T00:40:48;-0.30;99.90
28438;DHT22;15667;52.376;9.708;2023-02-26T00:43:17;-0.20;99.90
28438;DHT22;15667;52.376;9.708;2023-02-26T00:45:50;-0.20;99.90
28438;DHT22;15667;52.376;9.708;2023-02-26T00:51:05;-0.20;99.90
28438;DHT22;15667;52.376;9.708;2023-02-26T00:53:45;-0.20;99.90
28438;DHT22;15667;52.376;9.708;2023-02-26T00:56:14;-0.40;99.90
28438;DHT22;15667;52.376;9.708;2023-02-26T00:58:39;-0.50;99.90
28438;DHT22;15667;52.376;9.708;2023-02-26T01:01:05;-0.20;99.90
28438;DHT22;15667;52.376;9.708;2023-02-26T01:03:31;-0.40;99.90
28438;DHT22;15667;52.376;9.708;2023-02-26T01:05:57;-0.40;99.90
28438;DHT22;15667;52.376;9.708;2023-02-26T01:08:29;-0.50;99.90
28438;DHT22;15667;52.376;9.708;2023-02-26T01:10:56;-0.40;99.90
28438;DHT22;15667;52.376;9.708;2023-02-26T01:13:22;-0.50;99.90
28438;DHT22;15667;52.376;9.708;2023-02-26T01:15:53;-0.50;99.90
28438;DHT22;15667;52.376;9.708;2023-02-26T01:19:07;-0.50;99.90
28438;DHT22;15667;52.376;9.708;2023-02-26T01:21:18;-0.40;99.90
28438;DHT22;15667;52.376;9.708;2023-02-26T01:23:49;-0.40;99.90
28438;DHT22;15667;52.376;9.708;2023-02-26T01:26:22;-0.50;99.90
28438;DHT22;15667;52.376;9.708;2023-02-26T01:28:50;-0.50;99.90
28438;DHT22;15667;52.376;9.708;2023-02-26T01:31:42;-0.40;99.90
28438;DHT22;15667;52.376;9.708;2023-02-26T01:34:29;-0.40;99.90
28438;DHT22;15667;52.376;9.708;2023-02-26T01:37:26;-0.40;99.90
28438;DHT22;15667;52.376;9.708;2023-02-26T01:42:39;-0.60;99.90
28438;DHT22;15667;52.376;9.708;2023-02-26T01:45:20;-0.30;99.90
28438;DHT22;15667;52.376;9.708;2023-02-26T01:50:34;-0.40;99.90
28438;DHT22;15667;52.376;9.708;2023-02-26T01:53:23;-0.50;99.90
28438;DHT22;15667;52.376;9.708;2023-02-26T01:56:03;-0.40;99.90
28438;DHT22;15667;52.376;9.708;2023-02-26T01:58:32;-0.30;99.90
28438;DHT22;15667;52.376;9.708;2023-02-26T02:00:59;-0.20;99.90
28438;DHT22;15667;52.376;9.708;2023-02-26T02:03:26;0.60;99.90
28438;DHT22;15667;52.376;9.708;2023-02-26T02:05:57;-0.20;99.90
28438;DHT22;15667;52.376;9.708;2023-02-26T02:08:25;-0.20;99.90
28438;DHT22;15667;52.376;9.708;2023-02-26T02:10:51;-0.20;99.90
28438;DHT22;15667;52.376;9.708;2023-02-26T02:16:16;-0.20;99.90
28438;DHT22;15667;52.376;9.708;2023-02-26T02:27:27;-0.20;99.90
28438;DHT22;15667;52.376;9.708;2023-02-26T02:30:17;-0.20;99.90
28438;DHT22;15667;52.376;9.708;2023-02-26T02:32:50;-0.20;99.90
28438;DHT22;15667;52.376;9.708;2023-02-26T02:40:32;-0.20;99.90
28438;DHT22;15667;52.376;9.708;2023-02-26T02:43:12;-0.10;99.90
28438;DHT22;15667;52.376;9.708;2023-02-26T02:45:56;-0.20;99.90
28438;DHT22;15667;52.376;9.708;2023-02-26T02:48:36;-0.20;99.90
28438;DHT22;15667;52.376;9.708;2023-02-26T02:51:08;-0.30;99.90
28438;DHT22;15667;52.376;9.708;2023-02-26T02:53:38;-0.30;99.90
28438;DHT22;15667;52.376;9.708;2023-02-26T02:56:22;-0.10;99.90
28438;DHT22;15667;52.376;9.708;2023-02-26T02:58:59;-0.20;99.90
28438;DHT22;15667;52.376;9.708;2023-02-26T03:01:26;-0.10;99.90
28438;DHT22;15667;52.376;9.708;2023-02-26T03:04:05;-0.20;99.90
28438;DHT22;15667;52.376;9.708;2023-02-26T03:06:32;-0.20;99.90
28438;DHT22;15667;52.376;9.708;2023-02-26T03:08:59;0.90;99.90
28438;DHT22;15667;52.376;9.708;2023-02-26T03:11:25;-0.10;99.90
28438;DHT22;15667;52.376;9.708;2023-02-26T03:13:52;0.20;99.90
28438;DHT22;15667;52.376;9.708;2023-02-26T03:19:25;-0.20;99.90
28438;DHT22;15667;52.376;9.708;2023-02-26T03:22:05;-0.30;99.90
28438;DHT22;15667;52.376;9.708;2023-02-26T03:24:44;0.90;99.90
28438;DHT22;15667;52.376;9.708;2023-02-26T03:27:37;0.30;99.90
28438;DHT22;15667;52.376;9.708;2023-02-26T03:30:13;-0.40;99.90
28438;DHT22;15667;52.376;9.708;2023-02-26T03:32:47;-0.90;99.90
28438;DHT22;15667;52.376;9.708;2023-02-26T03:35:43;-0.20;99.90
28438;DHT22;15667;52.376;9.708;2023-02-26T03:38:41;-0.10;99.90
28438;DHT22;15667;52.376;9.708;2023-02-26T03:41:32;-0.80;99.90
28438;DHT22;15667;52.376;9.708;2023-02-26T03:44:56;-1.10;99.90
28438;DHT22;15667;52.376;9.708;2023-02-26T03:47:35;-0.70;99.90
28438;DHT22;15667;52.376;9.708;2023-02-26T03:53:12;-0.10;99.90
28438;DHT22;15667;52.376;9.708;2023-02-26T03:56:22;0.70;99.90
28438;DHT22;15667;52.376;9.708;2023-02-26T03:58:56;-0.80;99.90
28438;DHT22;15667;52.376;9.708;2023-02-26T04:18:07;-0.10;99.90
28438;DHT22;15667;52.376;9.708;2023-02-26T04:20:32;0.00;99.90
28438;DHT22;15667;52.376;9.708;2023-02-26T04:22:59;0.00;99.90
28438;DHT22;15667;52.376;9.708;2023-02-26T04:25:24;0.50;99.90
28438;DHT22;15667;52.376;9.708;2023-02-26T04:27:50;1.10;99.90
28438;DHT22;15667;52.376;9.708;2023-02-26T04:30:19;-0.10;99.90
28438;DHT22;15667;52.376;9.708;2023-02-26T04:32:45;0.00;99.90
28438;DHT22;15667;52.376;9.708;2023-02-26T04:35:13;-0.10;99.90
28438;DHT22;15667;52.376;9.708;2023-02-26T04:37:42;0.00;99.90
28438;DHT22;15667;52.376;9.708;2023-02-26T04:40:08;-0.10;99.90
28438;DHT22;15667;52.376;9.708;2023-02-26T04:42:34;0.00;99.90
28438;DHT22;15667;52.376;9.708;2023-02-26T04:45:00;0.60;99.90
28438;DHT22;15667;52.376;9.708;2023-02-26T04:47:26;0.80;99.90
28438;DHT22;15667;52.376;9.708;2023-02-26T04:49:57;1.10;99.90
28438;DHT22;15667;52.376;9.708;2023-02-26T04:52:26;-0.10;99.90
28438;DHT22;15667;52.376;9.708;2023-02-26T04:58:11;-0.20;99.90
28438;DHT22;15667;52.376;9.708;2023-02-26T05:00:52;0.00;99.90
28438;DHT22;15667;52.376;9.708;2023-02-26T05:03:44;1.00;99.90
28438;DHT22;15667;52.376;9.708;2023-02-26T05:06:42;-0.20;99.90
28438;DHT22;15667;52.376;9.708;2023-02-26T05:09:08;-0.10;99.90
28438;DHT22;15667;52.376;9.708;2023-02-26T05:11:37;0.60;99.90
28438;DHT22;15667;52.376;9.708;2023-02-26T05:14:05;1.10;99.90
28438;DHT22;15667;52.376;9.708;2023-02-26T05:16:36;0.50;99.90
28438;DHT22;15667;52.376;9.708;2023-02-26T05:19:06;1.00;99.90
28438;DHT22;15667;52.376;9.708;2023-02-26T05:21:34;0.70;99.90
28438;DHT22;15667;52.376;9.708;2023-02-26T05:24:03;-0.70;99.90
28438;DHT22;15667;52.376;9.708;2023-02-26T05:26:37;-0.10;99.90
28438;DHT22;15667;52.376;9.708;2023-02-26T05:29:05;-0.10;99.90
28438;DHT22;15667;52.376;9.708;2023-02-26T05:31:36;0.70;99.90
28438;DHT22;15667;52.376;9.708;2023-02-26T05:34:08;-1.00;99.90
28438;DHT22;15667;52.376;9.708;2023-02-26T05:36:34;0.60;99.90
28438;DHT22;15667;52.376;9.708;2023-02-26T05:39:00;0.60;99.90
28438;DHT22;15667;52.376;9.708;2023-02-26T05:41:25;0.20;99.90
28438;DHT22;15667;52.376;9.708;2023-02-26T05:43:51;0.40;99.90
28438;DHT22;15667;52.376;9.708;2023-02-26T05:46:17;-0.20;99.90
28438;DHT22;15667;52.376;9.708;2023-02-26T05:48:42;0.60;99.90
28438;DHT22;15667;52.376;9.708;2023-02-26T05:51:08;-0.40;99.90
28438;DHT22;15667;52.376;9.708;2023-02-26T05:53:34;0.50;99.90
28438;DHT22;15667;52.376;9.708;2023-02-26T05:56:00;-0.60;99.90
28438;DHT22;15667;52.376;9.708;2023-02-26T05:58:26;0.50;99.90
28438;DHT22;15667;52.376;9.708;2023-02-26T06:00:51;-1.50;99.90
28438;DHT22;15667;52.376;9.708;2023-02-26T06:03:17;-0.20;99.90
28438;DHT22;15667;52.376;9.708;2023-02-26T06:05:43;-0.60;99.90
28438;DHT22;15667;52.376;9.708;2023-02-26T06:08:08;-0.60;99.90
28438;DHT22;15667;52.376;9.708;2023-02-26T06:10:36;0.30;99.90
28438;DHT22;15667;52.376;9.708;2023-02-26T06:13:02;0.60;99.90
28438;DHT22;15667;52.376;9.708;2023-02-26T06:15:28;0.00;99.90
28438;DHT22;15667;52.376;9.708;2023-02-26T06:17:53;-0.60;99.90
28438;DHT22;15667;52.376;9.708;2023-02-26T06:20:19;0.10;99.90
28438;DHT22;15667;52.376;9.708;2023-02-26T06:22:45;0.20;99.90
28438;DHT22;15667;52.376;9.708;2023-02-26T06:25:10;0.00;99.90
28438;DHT22;15667;52.376;9.708;2023-02-26T06:27:36;-0.10;99.90
28438;DHT22;15667;52.376;9.708;2023-02-26T06:30:03;-0.40;99.90
28438;DHT22;15667;52.376;9.708;2023-02-26T06:32:29;-0.80;99.90
28438;DHT22;15667;52.376;9.708;2023-02-26T06:34:54;-0.80;99.90
28438;DHT22;15667;52.376;9.708;2023-02-26T06:37:20;-0.90;99.90
28438;DHT22;15667;52.376;9.708;2023-02-26T06:39:46;-0.90;99.90
28438;DHT22;15667;52.376;9.708;2023-02-26T06:45:48;-1.00;99.90
28438;DHT22;15667;52.376;9.708;2023-02-26T06:48:14;-0.30;99.90
28438;DHT22;15667;52.376;9.708;2023-02-26T06:50:40;-0.30;99.90
28438;DHT22;15667;52.376;9.708;2023-02-26T06:53:05;0.20;99.90
28438;DHT22;15667;52.376;9.708;2023-02-26T06:55:32;-1.00;99.90
28438;DHT22;15667;52.376;9.708;2023-02-26T06:57:58;-1.00;99.90
28438;DHT22;15667;52.376;9.708;2023-02-26T07:00:24;-0.90;99.90
28438;DHT22;15667;52.376;9.708;2023-02-26T07:02:51;-0.90;99.90
28438;DHT22;15667;52.376;9.708;2023-02-26T07:05:17;-0.90;99.90
28438;DHT22;15667;52.376;9.708;2023-02-26T07:07:42;-1.00;99.90
28438;DHT22;15667;52.376;9.708;2023-02-26T07:10:10;-0.10;99.90
28438;DHT22;15667;52.376;9.708;2023-02-26T07:12:36;-0.90;99.90
28438;DHT22;15667;52.376;9.708;2023-02-26T07:15:04;-0.90;99.90
28438;DHT22;15667;52.376;9.708;2023-02-26T07:17:30;-0.90;99.90
28438;DHT22;15667;52.376;9.708;2023-02-26T07:19:56;-1.00;99.90
28438;DHT22;15667;52.376;9.708;2023-02-26T07:22:21;-1.00;99.90
28438;DHT22;15667;52.376;9.708;2023-02-26T07:24:47;-0.80;99.90
28438;DHT22;15667;52.376;9.708;2023-02-26T07:27:14;0.30;99.90
28438;DHT22;15667;52.376;9.708;2023-02-26T07:29:40;0.10;99.90
28438;DHT22;15667;52.376;9.708;2023-02-26T07:32:05;-0.40;99.90
28438;DHT22;15667;52.376;9.708;2023-02-26T07:34:32;0.30;99.90
28438;DHT22;15667;52.376;9.708;2023-02-26T07:36:57;0.90;99.90
28438;DHT22;15667;52.376;9.708;2023-02-26T07:39:26;0.10;99.90
28438;DHT22;15667;52.376;9.708;2023-02-26T07:42:02;-0.30;99.90
28438;DHT22;15667;52.376;9.708;2023-02-26T07:44:47;-0.40;99.90
28438;DHT22;15667;52.376;9.708;2023-02-26T07:51:10;-0.40;99.90
28438;DHT22;15667;52.376;9.708;2023-02-26T07:54:15;-0.50;99.90
28438;DHT22;15667;52.376;9.708;2023-02-26T07:56:44;-0.40;99.90
28438;DHT22;15667;52.376;9.708;2023-02-26T07:59:10;-0.20;99.90
28438;DHT22;15667;52.376;9.708;2023-02-26T08:01:36;-0.20;99.90
28438;DHT22;15667;52.376;9.708;2023-02-26T08:04:01;0.10;99.90
28438;DHT22;15667;52.376;9.708;2023-02-26T08:06:28;0.30;99.90
28438;DHT22;15667;52.376;9.708;2023-02-26T08:08:54;0.40;99.90
28438;DHT22;15667;52.376;9.708;2023-02-26T08:11:19;1.20;99.90
28438;DHT22;15667;52.376;9.708;2023-02-26T08:13:45;0.60;99.90
28438;DHT22;15667;52.376;9.708;2023-02-26T08:16:11;1.10;99.90
28438;DHT22;15667;52.376;9.708;2023-02-26T08:18:37;0.80;99.90
28438;DHT22;15667;52.376;9.708;2023-02-26T08:21:03;0.90;99.90
28438;DHT22;15667;52.376;9.708;2023-02-26T08:23:29;1.00;99.90
28438;DHT22;15667;52.376;9.708;2023-02-26T08:26:06;1.80;99.90
28438;DHT22;15667;52.376;9.708;2023-02-26T08:28:32;1.30;99.90
28438;DHT22;15667;52.376;9.708;2023-02-26T08:30:59;1.60;99.90
28438;DHT22;15667;52.376;9.708;2023-02-26T08:33:25;1.40;99.90
28438;DHT22;15667;52.376;9.708;2023-02-26T08:35:51;2.20;99.90
28438;DHT22;15667;52.376;9.708;2023-02-26T08:38:18;1.60;99.90
28438;DHT22;15667;52.376;9.708;2023-02-26T08:40:44;1.60;99.90
28438;DHT22;15667;52.376;9.708;2023-02-26T08:43:09;2.40;99.90
28438;DHT22;15667;52.376;9.708;2023-02-26T08:45:37;2.00;99.90
28438;DHT22;15667;52.376;9.708;2023-02-26T08:48:03;2.20;99.90
28438;DHT22;15667;52.376;9.708;2023-02-26T08:50:29;2.50;99.90
28438;DHT22;15667;52.376;9.708;2023-02-26T08:52:54;2.80;99.90
28438;DHT22;15667;52.376;9.708;2023-02-26T08:55:21;3.00;99.90
28438;DHT22;15667;52.376;9.708;2023-02-26T08:57:46;2.00;99.90
28438;DHT22;15667;52.376;9.708;2023-02-26T09:00:13;2.80;99.90
28438;DHT22;15667;52.376;9.708;2023-02-26T09:02:44;1.80;99.90
28438;DHT22;15667;52.376;9.708;2023-02-26T09:05:13;1.70;99.90
28438;DHT22;15667;52.376;9.708;2023-02-26T09:07:39;2.70;99.90
28438;DHT22;15667;52.376;9.708;2023-02-26T09:10:06;3.20;99.90
28438;DHT22;15667;52.376;9.708;2023-02-26T09:12:33;2.70;99.90
28438;DHT22;15667;52.376;9.708;2023-02-26T09:15:02;2.60;99.90
28438;DHT22;15667;52.376;9.708;2023-02-26T09:17:31;2.90;99.90
28438;DHT22;15667;52.376;9.708;2023-02-26T09:19:57;3.90;99.90
28438;DHT22;15667;52.376;9.708;2023-02-26T09:22:23;4.40;99.90
28438;DHT22;15667;52.376;9.708;2023-02-26T09:24:48;4.40;99.90
28438;DHT22;15667;52.376;9.708;2023-02-26T09:27:14;3.90;99.90
28438;DHT22;15667;52.376;9.708;2023-02-26T09:29:43;4.70;99.90
28438;DHT22;15667;52.376;9.708;2023-02-26T09:32:09;4.20;99.90
28438;DHT22;15667;52.376;9.708;2023-02-26T09:34:37;3.10;99.90
28438;DHT22;15667;52.376;9.708;2023-02-26T09:37:04;3.40;99.90
28438;DHT22;15667;52.376;9.708;2023-02-26T09:39:30;3.90;99.90
28438;DHT22;15667;52.376;9.708;2023-02-26T09:42:00;3.50;99.90
28438;DHT22;15667;52.376;9.708;2023-02-26T09:44:34;4.90;99.90
28438;DHT22;15667;52.376;9.708;2023-02-26T09:47:11;4.00;99.90
28438;DHT22;15667;52.376;9.708;2023-02-26T09:49:46;3.90;99.90
28438;DHT22;15667;52.376;9.708;2023-02-26T09:52:45;4.60;99.90
28438;DHT22;15667;52.376;9.708;2023-02-26T09:55:35;4.70;99.90
28438;DHT22;15667;52.376;9.708;2023-02-26T09:58:14;4.60;99.90
28438;DHT22;15667;52.376;9.708;2023-02-26T10:06:22;5.60;99.90
28438;DHT22;15667;52.376;9.708;2023-02-26T10:09:25;3.90;99.90
28438;DHT22;15667;52.376;9.708;2023-02-26T10:17:19;4.60;99.90
28438;DHT22;15667;52.376;9.708;2023-02-26T10:19:50;3.50;99.90
28438;DHT22;15667;52.376;9.708;2023-02-26T10:22:41;3.30;99.90
28438;DHT22;15667;52.376;9.708;2023-02-26T10:25:14;3.00;99.90
28438;DHT22;15667;52.376;9.708;2023-02-26T10:30:36;3.10;99.90
28438;DHT22;15667;52.376;9.708;2023-02-26T10:35:55;3.10;99.90
28438;DHT22;15667;52.376;9.708;2023-02-26T10:38:25;2.90;99.90
28438;DHT22;15667;52.376;9.708;2023-02-26T10:41:03;2.70;99.90
28438;DHT22;15667;52.376;9.708;2023-02-26T10:46:33;2.70;99.90
28438;DHT22;15667;52.376;9.708;2023-02-26T10:49:23;2.80;99.90
28438;DHT22;15667;52.376;9.708;2023-02-26T10:51:53;2.70;99.90
28438;DHT22;15667;52.376;9.708;2023-02-26T10:54:38;2.90;99.90
28438;DHT22;15667;52.376;9.708;2023-02-26T10:57:23;3.10;99.90
28438;DHT22;15667;52.376;9.708;2023-02-26T10:59:49;3.20;99.90
28438;DHT22;15667;52.376;9.708;2023-02-26T11:02:41;3.20;99.90
28438;DHT22;15667;52.376;9.708;2023-02-26T11:05:16;3.30;99.90
28438;DHT22;15667;52.376;9.708;2023-02-26T11:07:46;3.60;99.90
28438;DHT22;15667;52.376;9.708;2023-02-26T11:10:18;3.80;99.90
28438;DHT22;15667;52.376;9.708;2023-02-26T11:12:44;3.80;99.90
28438;DHT22;15667;52.376;9.708;2023-02-26T11:15:18;3.60;99.90
28438;DHT22;15667;52.376;9.708;2023-02-26T11:17:48;3.60;99.90
28438;DHT22;15667;52.376;9.708;2023-02-26T11:20:34;3.80;99.90
28438;DHT22;15667;52.376;9.708;2023-02-26T11:23:03;3.80;99.90
28438;DHT22;15667;52.376;9.708;2023-02-26T11:25:30;4.20;99.90
28438;DHT22;15667;52.376;9.708;2023-02-26T11:28:04;4.80;99.90
28438;DHT22;15667;52.376;9.708;2023-02-26T11:30:35;4.20;99.90
28438;DHT22;15667;52.376;9.708;2023-02-26T11:33:21;3.30;99.90
28438;DHT22;15667;52.376;9.708;2023-02-26T11:35:47;4.80;99.90
28438;DHT22;15667;52.376;9.708;2023-02-26T11:38:18;3.70;99.90
28438;DHT22;15667;52.376;9.708;2023-02-26T11:40:47;3.80;99.90
28438;DHT22;15667;52.376;9.708;2023-02-26T11:43:18;3.80;99.90
28438;DHT22;15667;52.376;9.708;2023-02-26T11:45:47;3.80;99.90
28438;DHT22;15667;52.376;9.708;2023-02-26T11:48:21;3.70;99.90
28438;DHT22;15667;52.376;9.708;2023-02-26T11:50:55;3.60;99.90
28438;DHT22;15667;52.376;9.708;2023-02-26T11:53:29;3.80;99.90
28438;DHT22;15667;52.376;9.708;2023-02-26T11:56:11;3.80;99.90
28438;DHT22;15667;52.376;9.708;2023-02-26T11:58:38;3.90;99.90
28438;DHT22;15667;52.376;9.708;2023-02-26T12:01:06;4.60;99.90
28438;DHT22;15667;52.376;9.708;2023-02-26T12:03:36;4.10;99.90
28438;DHT22;15667;52.376;9.708;2023-02-26T12:06:06;4.40;99.90
28438;DHT22;15667;52.376;9.708;2023-02-26T12:08:38;4.20;99.90
28438;DHT22;15667;52.376;9.708;2023-02-26T12:11:07;4.30;99.90
28438;DHT22;15667;52.376;9.708;2023-02-26T12:33:57;3.90;99.90
28438;DHT22;15667;52.376;9.708;2023-02-26T12:39:23;4.40;99.90
28438;DHT22;15667;52.376;9.708;2023-02-26T12:42:07;4.30;99.90
28438;DHT22;15667;52.376;9.708;2023-02-26T12:44:45;4.00;99.90
28438;DHT22;15667;52.376;9.708;2023-02-26T12:47:40;4.30;99.90
28438;DHT22;15667;52.376;9.708;2023-02-26T13:05:00;4.60;99.90
28438;DHT22;15667;52.376;9.708;2023-02-26T13:12:41;4.40;99.90
28438;DHT22;15667;52.376;9.708;2023-02-26T13:18:16;4.60;99.90
28438;DHT22;15667;52.376;9.708;2023-02-26T13:20:56;4.60;99.90
28438;DHT22;15667;52.376;9.708;2023-02-26T13:23:46;4.50;99.90
28438;DHT22;15667;52.376;9.708;2023-02-26T13:26:14;4.80;99.90
28438;DHT22;15667;52.376;9.708;2023-02-26T13:28:44;5.10;99.90
28438;DHT22;15667;52.376;9.708;2023-02-26T13:31:32;5.40;99.90
28438;DHT22;15667;52.376;9.708;2023-02-26T13:34:03;5.10;99.90
28438;DHT22;15667;52.376;9.708;2023-02-26T13:36:31;6.30;99.90
28438;DHT22;15667;52.376;9.708;2023-02-26T13:55:45;8.90;99.90
28438;DHT22;15667;52.376;9.708;2023-02-26T13:58:39;8.60;99.40
28438;DHT22;15667;52.376;9.708;2023-02-26T14:03:52;9.50;96.70
28438;DHT22;15667;52.376;9.708;2023-02-26T14:06:25;8.40;98.30
28438;DHT22;15667;52.376;9.708;2023-02-26T14:08:54;9.10;97.90
28438;DHT22;15667;52.376;9.708;2023-02-26T14:14:15;8.50;96.00
28438;DHT22;15667;52.376;9.708;2023-02-26T14:16:43;8.00;95.80
28438;DHT22;15667;52.376;9.708;2023-02-26T14:21:45;7.00;95.40
28438;DHT22;15667;52.376;9.708;2023-02-26T14:24:20;6.70;96.30
28438;DHT22;15667;52.376;9.708;2023-02-26T14:26:49;6.20;97.00
28438;DHT22;15667;52.376;9.708;2023-02-26T14:29:28;6.10;96.50
28438;DHT22;15667;52.376;9.708;2023-02-26T14:32:11;5.90;95.60
28438;DHT22;15667;52.376;9.708;2023-02-26T14:34:50;6.10;97.30
28438;DHT22;15667;52.376;9.708;2023-02-26T14:37:19;6.30;97.00
28438;DHT22;15667;52.376;9.708;2023-02-26T15:20:45;4.60;99.90
28438;DHT22;15667;52.376;9.708;2023-02-26T21:28:16;1.40;99.90
28438;DHT22;15667;52.376;9.708;2023-02-26T21:30:46;1.40;99.90
28438;DHT22;15667;52.376;9.708;2023-02-26T21:33:20;1.20;99.90
28438;DHT22;15667;52.376;9.708;2023-02-26T21:35:50;1.20;99.90
28438;DHT22;15667;52.376;9.708;2023-02-26T21:38:16;1.20;99.90
28438;DHT22;15667;52.376;9.708;2023-02-26T21:40:46;1.20;99.90
28438;DHT22;15667;52.376;9.708;2023-02-26T21:43:12;1.20;99.90
28438;DHT22;15667;52.376;9.708;2023-02-26T21:45:39;1.20;99.90
28438;DHT22;15667;52.376;9.708;2023-02-26T21:48:06;1.20;99.90
28438;DHT22;15667;52.376;9.708;2023-02-26T21:50:33;1.20;99.90
28438;DHT22;15667;52.376;9.708;2023-02-26T21:52:59;1.20;99.90
28438;DHT22;15667;52.376;9.708;2023-02-26T21:55:25;2.00;99.90
28438;DHT22;15667;52.376;9.708;2023-02-26T21:57:51;1.20;99.90
28438;DHT22;15667;52.376;9.708;2023-02-26T22:00:17;1.10;99.90
28438;DHT22;15667;52.376;9.708;2023-02-26T22:02:43;1.10;99.90
28438;DHT22;15667;52.376;9.708;2023-02-26T22:05:10;1.60;99.90
28438;DHT22;15667;52.376;9.708;2023-02-26T22:07:36;1.00;99.90
28438;DHT22;15667;52.376;9.708;2023-02-26T22:10:04;1.00;99.90
28438;DHT22;15667;52.376;9.708;2023-02-26T22:12:30;1.00;99.90
28438;DHT22;15667;52.376;9.708;2023-02-26T22:14:56;1.90;99.90
28438;DHT22;15667;52.376;9.708;2023-02-26T22:17:21;2.10;99.90
28438;DHT22;15667;52.376;9.708;2023-02-26T22:19:47;1.00;99.90
28438;DHT22;15667;52.376;9.708;2023-02-26T22:22:13;1.00;99.90
28438;DHT22;15667;52.376;9.708;2023-02-26T22:24:41;0.00;99.90
28438;DHT22;15667;52.376;9.708;2023-02-26T22:27:07;1.00;99.90
28438;DHT22;15667;52.376;9.708;2023-02-26T22:29:33;1.00;99.90
28438;DHT22;15667;52.376;9.708;2023-02-26T22:31:58;1.00;99.90
28438;DHT22;15667;52.376;9.708;2023-02-26T22:34:26;1.00;99.90
28438;DHT22;15667;52.376;9.708;2023-02-26T22:36:53;1.00;99.90
28438;DHT22;15667;52.376;9.708;2023-02-26T22:39:19;1.00;99.90
28438;DHT22;15667;52.376;9.708;2023-02-26T22:41:45;1.90;99.90
28438;DHT22;15667;52.376;9.708;2023-02-26T22:44:11;0.90;99.90
28438;DHT22;15667;52.376;9.708;2023-02-26T22:46:38;2.20;99.90
28438;DHT22;15667;52.376;9.708;2023-02-26T22:49:04;0.90;99.90
28438;DHT22;15667;52.376;9.708;2023-02-26T22:51:30;0.80;99.90
28438;DHT22;15667;52.376;9.708;2023-02-26T22:53:58;0.80;99.90
28438;DHT22;15667;52.376;9.708;2023-02-26T22:56:24;0.80;99.90
28438;DHT22;15667;52.376;9.708;2023-02-26T22:58:50;2.30;99.90
28438;DHT22;15667;52.376;9.708;2023-02-26T23:01:16;2.10;99.90
28438;DHT22;15667;52.376;9.708;2023-02-26T23:03:42;1.80;99.90
28438;DHT22;15667;52.376;9.708;2023-02-26T23:06:08;0.70;99.90
28438;DHT22;15667;52.376;9.708;2023-02-26T23:08:34;0.70;99.90
28438;DHT22;15667;52.376;9.708;2023-02-26T23:11:01;1.70;99.90
28438;DHT22;15667;52.376;9.708;2023-02-26T23:13:28;0.70;99.90
28438;DHT22;15667;52.376;9.708;2023-02-26T23:15:56;0.70;99.90
28438;DHT22;15667;52.376;9.708;2023-02-26T23:18:22;2.40;99.90
28438;DHT22;15667;52.376;9.708;2023-02-26T23:20:48;0.70;99.90
28438;DHT22;15667;52.376;9.708;2023-02-26T23:23:15;0.70;99.90
28438;DHT22;15667;52.376;9.708;2023-02-26T23:25:41;0.70;99.90
28438;DHT22;15667;52.376;9.708;2023-02-26T23:28:07;0.70;99.90
28438;DHT22;15667;52.376;9.708;2023-02-26T23:30:33;2.10;99.90
28438;DHT22;15667;52.376;9.708;2023-02-26T23:32:59;0.60;99.90
28438;DHT22;15667;52.376;9.708;2023-02-26T23:35:25;2.20;99.90
28438;DHT22;15667;52.376;9.708;2023-02-26T23:37:51;0.50;99.90
28438;DHT22;15667;52.376;9.708;2023-02-26T23:40:17;1.20;99.90
28438;DHT22;15667;52.376;9.708;2023-02-26T23:42:43;0.50;99.90
28438;DHT22;15667;52.376;9.708;2023-02-26T23:45:09;1.40;99.90
28438;DHT22;15667;52.376;9.708;2023-02-26T23:47:35;0.50;99.90
28438;DHT22;15667;52.376;9.708;2023-02-26T23:50:01;0.50;99.90
28438;DHT22;15667;52.376;9.708;2023-02-26T23:52:27;0.50;99.90
28438;DHT22;15667;52.376;9.708;2023-02-26T23:54:53;0.50;99.90
28438;DHT22;15667;52.376;9.708;2023-02-26T23:57:19;2.20;99.90
28438;DHT22;15667;52.376;9.708;2023-02-26T23:59:45;1.60;99.90
